Time;durP1;ratioP1;P1;durP2;ratioP2;P2;SDS_P1;SDS_P2;PMS_P1;PMS_P2;Temp;Humidity;BMP_temperature;BMP_pressure;BME280_temperature;BME280_humidity;BME280_pressure;Samples;Min_cycle;Max_cycle;Signal;HPM_P1;HPM_P2
2021/06/16 00:01:51;;;;;;;6.50;3.70;;;;;;;;;;4982321;28;20546;-85
2021/06/16 00:04:55;;;;;;;5.07;3.37;;;;;;;;;;4982400;28;20186;-85
2021/06/16 00:08:00;;;;;;;5.33;3.13;;;;;;;;;;4982278;28;20179;-85
2021/06/16 00:11:07;;;;;;;7.73;3.73;;;;;;;;;;4982077;28;20210;-85
2021/06/16 00:14:11;;;;;;;3.77;3.17;;;;;;;;;;4993271;28;20194;-84
2021/06/16 00:17:15;;;;;;;5.33;4.00;;;;;;;;;;4983068;28;20198;-84
2021/06/16 00:20:20;;;;;;;4.33;3.70;;;;;;;;;;4997231;28;20229;-85
2021/06/16 00:23:24;;;;;;;3.63;3.30;;;;;;;;;;4985811;28;20186;-84
2021/06/16 00:26:28;;;;;;;6.27;3.47;;;;;;;;;;4997943;28;20182;-85
2021/06/16 00:29:38;;;;;;;5.90;3.60;;;;;;;;;;4997481;28;20593;-84
2021/06/16 00:32:43;;;;;;;4.50;3.50;;;;;;;;;;4985743;28;20182;-85
2021/06/16 00:35:47;;;;;;;5.00;3.60;;;;;;;;;;4985721;28;20174;-85
2021/06/16 00:38:52;;;;;;;5.03;3.50;;;;;;;;;;4996562;28;20210;-85
2021/06/16 00:41:56;;;;;;;8.10;3.40;;;;;;;;;;4985639;28;20182;-85
2021/06/16 00:45:00;;;;;;;5.43;3.60;;;;;;;;;;4985655;28;20633;-84
2021/06/16 00:48:06;;;;;;;4.57;3.53;;;;;;;;;;4985660;28;20186;-85
2021/06/16 00:51:10;;;;;;;10.00;3.27;;;;;;;;;;4996303;28;20554;-85
2021/06/16 00:54:15;;;;;;;4.87;4.00;;;;;;;;;;4996144;28;20637;-84
2021/06/16 00:57:19;;;;;;;6.73;3.80;;;;;;;;;;4996478;28;20633;-84
2021/06/16 01:00:30;;;;;;;9.83;3.77;;;;;;;;;;4996150;28;20700;-84
2021/06/16 01:03:56;;;;;;;6.47;3.70;;;;;;;;;;4984907;28;20186;-84
2021/06/16 01:07:09;;;;;;;5.30;3.90;;;;;;;;;;4996249;28;20190;-84
2021/06/16 01:10:21;;;;;;;6.27;3.83;;;;;;;;;;4996407;28;20214;-85
2021/06/16 01:13:32;;;;;;;4.90;3.43;;;;;;;;;;4984778;28;20189;-85
2021/06/16 01:16:40;;;;;;;8.47;3.87;;;;;;;;;;4996988;28;20190;-84
2021/06/16 01:19:50;;;;;;;22.00;4.00;;;;;;;;;;4984561;28;20234;-84
2021/06/16 01:22:58;;;;;;;6.63;3.70;;;;;;;;;;4995795;28;20542;-85
2021/06/16 01:26:02;;;;;;;6.47;4.10;;;;;;;;;;4984908;28;20206;-85
2021/06/16 01:29:14;;;;;;;5.23;4.27;;;;;;;;;;4984058;28;20194;-84
2021/06/16 01:32:19;;;;;;;4.97;3.73;;;;;;;;;;4995668;28;20182;-84
2021/06/16 01:35:27;;;;;;;6.00;4.20;;;;;;;;;;4996493;28;20506;-84
2021/06/16 01:38:31;;;;;;;6.17;4.33;;;;;;;;;;4984911;28;20178;-84
2021/06/16 01:41:37;;;;;;;9.07;4.30;;;;;;;;;;4984864;28;20174;-85
2021/06/16 01:44:42;;;;;;;8.30;4.20;;;;;;;;;;4984734;28;20182;-84
2021/06/16 01:47:49;;;;;;;5.00;4.50;;;;;;;;;;4984135;28;20201;-85
2021/06/16 01:50:53;;;;;;;7.27;4.47;;;;;;;;;;4984144;28;20218;-85
2021/06/16 01:53:59;;;;;;;6.00;4.50;;;;;;;;;;4995298;28;20638;-84
2021/06/16 01:57:05;;;;;;;5.83;4.50;;;;;;;;;;4984452;28;20186;-84
2021/06/16 02:00:10;;;;;;;7.00;3.93;;;;;;;;;;4995006;28;20230;-84
2021/06/16 02:03:15;;;;;;;6.30;4.40;;;;;;;;;;4972972;28;20187;-84
2021/06/16 02:06:23;;;;;;;6.90;4.40;;;;;;;;;;4984014;28;20179;-84
2021/06/16 02:09:28;;;;;;;4.63;4.23;;;;;;;;;;4972823;28;20210;-84
2021/06/16 02:12:33;;;;;;;6.17;4.30;;;;;;;;;;4983947;28;20186;-84
2021/06/16 02:15:42;;;;;;;5.83;4.37;;;;;;;;;;4984017;28;20182;-84
2021/06/16 02:18:50;;;;;;;6.60;4.33;;;;;;;;;;4994660;28;20182;-85
2021/06/16 02:21:56;;;;;;;5.90;4.80;;;;;;;;;;4983670;28;20183;-84
2021/06/16 02:25:04;;;;;;;6.07;4.10;;;;;;;;;;4972486;28;20202;-85
2021/06/16 02:28:08;;;;;;;5.90;4.03;;;;;;;;;;4994827;28;20178;-85
2021/06/16 02:31:13;;;;;;;6.20;4.20;;;;;;;;;;4971927;28;20217;-85
2021/06/16 02:34:19;;;;;;;8.17;4.20;;;;;;;;;;4994325;28;20193;-84
2021/06/16 02:37:26;;;;;;;7.53;4.10;;;;;;;;;;4995207;28;20194;-84
2021/06/16 02:40:31;;;;;;;5.70;4.27;;;;;;;;;;4994351;28;20685;-84
2021/06/16 02:43:36;;;;;;;5.17;4.20;;;;;;;;;;4995554;28;20178;-85
2021/06/16 02:46:43;;;;;;;9.07;4.60;;;;;;;;;;4994399;28;20178;-84
2021/06/16 02:49:52;;;;;;;4.43;3.53;;;;;;;;;;4993867;28;20210;-84
2021/06/16 02:53:03;;;;;;;5.70;4.57;;;;;;;;;;4994041;28;20202;-84
2021/06/16 02:56:08;;;;;;;7.73;4.50;;;;;;;;;;4983199;28;20202;-84
2021/06/16 02:59:14;;;;;;;8.03;4.50;;;;;;;;;;4994108;28;20217;-85
2021/06/16 03:02:22;;;;;;;6.20;4.10;;;;;;;;;;4982879;28;20182;-84
2021/06/16 03:05:28;;;;;;;8.07;4.13;;;;;;;;;;4994070;28;20178;-84
2021/06/16 03:08:32;;;;;;;5.87;4.17;;;;;;;;;;4993869;28;20182;-84
2021/06/16 03:11:38;;;;;;;5.07;4.00;;;;;;;;;;4993976;28;20174;-84
2021/06/16 03:14:43;;;;;;;6.67;4.80;;;;;;;;;;4994040;28;20205;-84
2021/06/16 03:17:48;;;;;;;6.23;4.73;;;;;;;;;;4993595;28;20182;-84
2021/06/16 03:20:56;;;;;;;4.83;3.80;;;;;;;;;;4993725;28;20226;-85
2021/06/16 03:24:00;;;;;;;5.37;4.53;;;;;;;;;;4971259;28;20530;-84
2021/06/16 03:27:05;;;;;;;5.07;4.27;;;;;;;;;;4993632;28;20182;-84
2021/06/16 03:30:10;;;;;;;5.27;4.63;;;;;;;;;;5022934;23;20216;-81
2021/06/16 03:33:16;;;;;;;7.20;4.33;;;;;;;;;;5021319;28;20180;-82
2021/06/16 03:36:21;;;;;;;7.40;4.33;;;;;;;;;;5010542;28;20181;-81
2021/06/16 03:39:27;;;;;;;5.13;4.37;;;;;;;;;;5021679;28;20181;-80
2021/06/16 03:42:36;;;;;;;5.80;4.17;;;;;;;;;;5002190;28;20185;-80
2021/06/16 03:45:43;;;;;;;5.30;4.13;;;;;;;;;;5001842;28;20197;-82
2021/06/16 03:48:48;;;;;;;16.80;5.33;;;;;;;;;;5001866;28;20202;-82
2021/06/16 03:51:53;;;;;;;45.33;6.33;;;;;;;;;;5002242;28;20209;-81
2021/06/16 03:54:58;;;;;;;34.57;5.93;;;;;;;;;;5006282;28;20181;-81
2021/06/16 03:58:02;;;;;;;18.43;4.93;;;;;;;;;;5005995;28;20193;-81
2021/06/16 04:01:11;;;;;;;10.33;5.10;;;;;;;;;;5017666;28;20232;-81
2021/06/16 04:04:16;;;;;;;13.43;4.40;;;;;;;;;;5017604;28;20525;-81
2021/06/16 04:07:21;;;;;;;12.50;4.93;;;;;;;;;;5005284;28;20209;-83
2021/06/16 04:10:26;;;;;;;7.87;4.47;;;;;;;;;;4998455;28;20712;-82
2021/06/16 04:13:31;;;;;;;6.47;4.37;;;;;;;;;;4975758;28;20183;-82
2021/06/16 04:16:35;;;;;;;8.77;4.83;;;;;;;;;;4998801;28;20190;-84
2021/06/16 04:19:39;;;;;;;6.03;4.50;;;;;;;;;;4998252;28;20174;-81
2021/06/16 04:22:44;;;;;;;9.70;4.33;;;;;;;;;;4987292;28;20190;-82
2021/06/16 04:25:48;;;;;;;6.00;4.30;;;;;;;;;;4975983;28;20525;-82
2021/06/16 04:28:52;;;;;;;6.27;4.20;;;;;;;;;;5009213;28;20684;-82
2021/06/16 04:31:56;;;;;;;6.83;4.30;;;;;;;;;;4985916;28;20707;-82
2021/06/16 04:35:01;;;;;;;7.60;4.50;;;;;;;;;;5008852;28;20178;-82
2021/06/16 04:38:06;;;;;;;9.87;4.73;;;;;;;;;;4997447;28;20231;-81
2021/06/16 04:41:11;;;;;;;5.00;4.50;;;;;;;;;;4996500;28;20237;-81
2021/06/16 04:44:15;;;;;;;7.80;4.70;;;;;;;;;;4986040;28;20182;-82
2021/06/16 04:47:19;;;;;;;9.90;5.30;;;;;;;;;;4974682;28;20186;-82
2021/06/16 04:50:23;;;;;;;6.83;4.83;;;;;;;;;;5008195;28;20214;-86
2021/06/16 04:53:27;;;;;;;7.60;4.77;;;;;;;;;;4974716;28;20187;-82
2021/06/16 04:56:34;;;;;;;7.50;4.90;;;;;;;;;;4996752;28;20182;-82
2021/06/16 04:59:38;;;;;;;9.13;5.07;;;;;;;;;;4997354;28;20178;-82
2021/06/16 05:02:42;;;;;;;7.83;4.80;;;;;;;;;;4985462;28;20190;-82
2021/06/16 05:05:46;;;;;;;7.67;5.10;;;;;;;;;;4996881;28;20564;-82
2021/06/16 05:08:50;;;;;;;12.63;4.70;;;;;;;;;;4996776;28;20182;-82
2021/06/16 05:11:55;;;;;;;18.20;5.83;;;;;;;;;;4996251;28;20214;-82
2021/06/16 05:15:00;;;;;;;13.43;5.30;;;;;;;;;;5007488;28;20183;-82
2021/06/16 05:18:07;;;;;;;11.37;5.50;;;;;;;;;;5008157;28;20182;-82
2021/06/16 05:21:12;;;;;;;21.13;7.77;;;;;;;;;;4984345;28;20241;-82
2021/06/16 05:24:16;;;;;;;24.50;6.57;;;;;;;;;;4996124;28;20187;-83
2021/06/16 05:27:20;;;;;;;18.60;6.70;;;;;;;;;;4984752;28;20209;-83
2021/06/16 05:30:25;;;;;;;23.47;7.00;;;;;;;;;;5007760;28;20222;-83
2021/06/16 05:33:29;;;;;;;10.43;5.90;;;;;;;;;;4962219;28;20664;-83
2021/06/16 05:36:35;;;;;;;11.17;5.73;;;;;;;;;;4996154;28;20221;-83
2021/06/16 05:39:40;;;;;;;7.83;5.83;;;;;;;;;;5007281;28;20202;-84
2021/06/16 05:42:44;;;;;;;16.17;6.90;;;;;;;;;;4975373;28;20667;-84
2021/06/16 05:45:49;;;;;;;13.10;6.63;;;;;;;;;;5003807;28;20567;-84
2021/06/16 05:48:53;;;;;;;23.10;6.33;;;;;;;;;;5003843;28;20205;-84
2021/06/16 05:51:57;;;;;;;11.67;6.20;;;;;;;;;;5014931;28;20217;-84
2021/06/16 05:55:03;;;;;;;14.97;7.00;;;;;;;;;;5015163;28;20193;-83
2021/06/16 05:58:07;;;;;;;12.80;6.57;;;;;;;;;;5010610;28;20206;-82
2021/06/16 06:01:11;;;;;;;13.27;6.73;;;;;;;;;;5010605;28;20315;-83
2021/06/16 06:04:16;;;;;;;9.47;6.30;;;;;;;;;;4997123;28;20201;-83
2021/06/16 06:07:22;;;;;;;9.90;5.27;;;;;;;;;;5004015;28;20201;-82
2021/06/16 06:10:27;;;;;;;12.07;6.13;;;;;;;;;;4995041;28;20214;-83
2021/06/16 06:13:31;;;;;;;17.63;5.83;;;;;;;;;;4995330;28;20193;-84
2021/06/16 06:16:35;;;;;;;12.43;5.90;;;;;;;;;;5003305;28;20196;-83
2021/06/16 06:19:40;;;;;;;17.53;6.27;;;;;;;;;;4996674;28;20205;-83
2021/06/16 06:22:46;;;;;;;17.27;6.03;;;;;;;;;;4991303;28;20201;-83
2021/06/16 06:25:50;;;;;;;13.47;6.50;;;;;;;;;;4992100;28;20205;-83
2021/06/16 06:28:54;;;;;;;9.37;5.80;;;;;;;;;;5003085;28;20534;-84
2021/06/16 06:32:00;;;;;;;11.27;5.67;;;;;;;;;;4992201;28;20225;-83
2021/06/16 06:35:04;;;;;;;13.77;6.00;;;;;;;;;;4991845;28;20513;-83
2021/06/16 06:38:11;;;;;;;12.17;6.37;;;;;;;;;;5025573;28;20178;-83
2021/06/16 06:41:16;;;;;;;8.27;6.30;;;;;;;;;;5014981;28;20233;-83
2021/06/16 06:44:21;;;;;;;10.03;6.13;;;;;;;;;;4991700;28;20185;-83
2021/06/16 06:47:26;;;;;;;16.70;5.93;;;;;;;;;;5003143;28;20189;-83
2021/06/16 06:50:30;;;;;;;12.47;6.13;;;;;;;;;;5002980;28;20213;-82
2021/06/16 06:53:35;;;;;;;9.97;5.70;;;;;;;;;;5002663;28;20521;-83
2021/06/16 06:56:39;;;;;;;16.30;6.00;;;;;;;;;;4991905;28;20181;-83
2021/06/16 06:59:43;;;;;;;8.60;5.27;;;;;;;;;;5014641;28;20201;-83
2021/06/16 07:02:48;;;;;;;11.90;4.80;;;;;;;;;;4991666;28;20196;-83
2021/06/16 07:05:52;;;;;;;10.97;4.73;;;;;;;;;;5002298;28;20182;-83
2021/06/16 07:08:56;;;;;;;12.30;4.93;;;;;;;;;;5002821;28;20195;-84
2021/06/16 07:12:00;;;;;;;8.40;5.30;;;;;;;;;;4991360;28;20209;-83
2021/06/16 07:15:06;;;;;;;11.80;4.23;;;;;;;;;;5002727;28;20182;-83
2021/06/16 07:18:10;;;;;;;9.33;4.53;;;;;;;;;;5013343;28;20197;-83
2021/06/16 07:21:15;;;;;;;11.17;4.30;;;;;;;;;;5002016;28;20226;-83
2021/06/16 07:24:19;;;;;;;12.63;4.47;;;;;;;;;;5014505;28;20179;-83
2021/06/16 07:27:24;;;;;;;11.73;4.30;;;;;;;;;;4990710;28;20184;-83
2021/06/16 07:30:28;;;;;;;7.17;3.90;;;;;;;;;;5002094;28;20225;-83
2021/06/16 07:33:34;;;;;;;7.93;3.40;;;;;;;;;;5002537;28;20185;-83
2021/06/16 07:36:38;;;;;;;8.30;2.73;;;;;;;;;;5024703;28;20182;-83
2021/06/16 07:39:42;;;;;;;9.37;2.90;;;;;;;;;;5015196;28;20173;-83
2021/06/16 07:42:48;;;;;;;5.70;2.80;;;;;;;;;;5014714;28;20687;-83
2021/06/16 07:45:52;;;;;;;4.30;2.50;;;;;;;;;;5014760;28;20193;-84
2021/06/16 07:48:56;;;;;;;8.55;2.50;;;;;;;;;;5000280;28;20541;-84
2021/06/16 07:52:00;;;;;;;4.68;2.22;;;;;;;;;;5000274;28;20209;-84
2021/06/16 07:55:05;;;;;;;4.07;2.50;;;;;;;;;;5000410;28;20176;-84
2021/06/16 07:58:10;;;;;;;4.43;2.50;;;;;;;;;;5000176;28;20185;-85
2021/06/16 08:01:17;;;;;;;4.03;2.60;;;;;;;;;;5000176;28;20223;-84
2021/06/16 08:04:24;;;;;;;3.75;2.45;;;;;;;;;;4988807;28;20185;-84
2021/06/16 08:07:29;;;;;;;3.33;2.35;;;;;;;;;;4988577;28;20519;-83
2021/06/16 08:10:33;;;;;;;4.78;2.28;;;;;;;;;;4999837;28;20223;-84
2021/06/16 08:13:37;;;;;;;3.58;2.28;;;;;;;;;;4999500;28;20177;-84
2021/06/16 08:16:41;;;;;;;7.35;2.45;;;;;;;;;;4988686;28;20182;-85
2021/06/16 08:19:45;;;;;;;4.35;2.20;;;;;;;;;;4999799;28;20178;-84
2021/06/16 08:22:50;;;;;;;5.25;2.53;;;;;;;;;;5010753;28;20202;-84
2021/06/16 08:25:55;;;;;;;26.70;4.75;;;;;;;;;;4999345;28;20186;-84
2021/06/16 08:28:59;;;;;;;6.25;2.28;;;;;;;;;;4988396;28;20178;-84
2021/06/16 08:32:04;;;;;;;4.03;1.90;;;;;;;;;;4999549;28;20221;-84
2021/06/16 08:35:09;;;;;;;3.47;2.35;;;;;;;;;;5011614;28;20540;-84
2021/06/16 08:38:14;;;;;;;3.60;2.13;;;;;;;;;;5000815;28;20548;-84
2021/06/16 08:41:19;;;;;;;4.35;2.55;;;;;;;;;;4991791;28;20229;-84
2021/06/16 08:44:23;;;;;;;4.25;2.20;;;;;;;;;;5014618;28;20526;-84
2021/06/16 08:47:29;;;;;;;3.55;2.20;;;;;;;;;;5003131;28;20178;-84
2021/06/16 08:50:33;;;;;;;4.65;2.22;;;;;;;;;;5003060;28;20217;-83
2021/06/16 08:53:38;;;;;;;5.38;2.53;;;;;;;;;;5014401;28;20182;-84
2021/06/16 08:56:42;;;;;;;7.25;2.60;;;;;;;;;;5002909;28;20182;-84
2021/06/16 08:59:47;;;;;;;4.53;2.50;;;;;;;;;;5014781;28;20789;-86
2021/06/16 09:02:51;;;;;;;5.95;2.42;;;;;;;;;;5002825;28;20552;-84
2021/06/16 09:06:07;;;;;;;2.97;2.33;;;;;;;;;;5002388;28;20185;-85
2021/06/16 09:09:11;;;;;;;3.33;2.20;;;;;;;;;;5002657;28;20186;-84
2021/06/16 09:12:30;;;;;;;7.22;2.60;;;;;;;;;;5002219;28;20177;-84
2021/06/16 09:15:36;;;;;;;6.57;2.33;;;;;;;;;;5002972;28;20182;-83
2021/06/16 09:18:43;;;;;;;3.85;2.25;;;;;;;;;;5002646;28;20186;-84
2021/06/16 09:21:49;;;;;;;5.78;2.22;;;;;;;;;;5014303;28;20230;-84
2021/06/16 09:24:54;;;;;;;2.97;2.28;;;;;;;;;;4990638;28;20182;-83
2021/06/16 09:27:59;;;;;;;3.03;2.30;;;;;;;;;;5002783;28;20648;-84
2021/06/16 09:31:04;;;;;;;6.35;2.28;;;;;;;;;;5002278;28;20226;-84
2021/06/16 09:34:17;;;;;;;3.78;2.10;;;;;;;;;;5002161;28;20177;-84
2021/06/16 09:37:21;;;;;;;2.88;2.00;;;;;;;;;;4990349;28;20672;-84
2021/06/16 09:40:31;;;;;;;4.13;1.98;;;;;;;;;;5014192;28;20218;-84
2021/06/16 09:43:37;;;;;;;2.50;1.90;;;;;;;;;;5013263;28;20214;-84
2021/06/16 09:46:41;;;;;;;11.88;2.80;;;;;;;;;;5024505;28;20628;-84
2021/06/16 09:49:50;;;;;;;4.32;2.20;;;;;;;;;;5001034;28;20186;-84
2021/06/16 09:52:54;;;;;;;2.22;1.65;;;;;;;;;;5002073;28;20186;-84
2021/06/16 09:56:15;;;;;;;3.47;1.95;;;;;;;;;;4990792;28;20885;-84
2021/06/16 09:59:36;;;;;;;4.28;2.42;;;;;;;;;;4990063;28;20198;-84
2021/06/16 10:02:41;;;;;;;5.28;1.90;;;;;;;;;;5013607;28;20206;-84
2021/06/16 10:06:12;;;;;;;2.47;1.85;;;;;;;;;;4988236;28;20542;-83
2021/06/16 10:09:19;;;;;;;2.97;1.50;;;;;;;;;;5004682;28;20201;-84
2021/06/16 10:12:30;;;;;;;5.40;2.20;;;;;;;;;;5001473;28;20178;-83
2021/06/16 10:15:34;;;;;;;5.93;2.00;;;;;;;;;;5001573;28;20545;-84
2021/06/16 10:18:40;;;;;;;4.00;1.95;;;;;;;;;;5001458;28;20178;-84
2021/06/16 10:21:44;;;;;;;3.88;1.85;;;;;;;;;;5001164;28;20691;-84
2021/06/16 10:24:50;;;;;;;4.00;2.08;;;;;;;;;;5013250;28;20643;-84
2021/06/16 10:27:58;;;;;;;3.30;2.00;;;;;;;;;;4990289;28;20189;-84
2021/06/16 10:31:04;;;;;;;2.50;1.95;;;;;;;;;;4989936;28;20565;-86
2021/06/16 10:34:09;;;;;;;5.97;1.98;;;;;;;;;;5001218;28;20179;-84
2021/06/16 10:37:24;;;;;;;3.10;1.80;;;;;;;;;;5012436;28;20178;-83
2021/06/16 10:40:29;;;;;;;4.78;1.73;;;;;;;;;;5000385;28;20221;-84
2021/06/16 10:43:35;;;;;;;2.53;1.80;;;;;;;;;;5000872;28;20205;-84
2021/06/16 10:47:00;;;;;;;8.30;2.50;;;;;;;;;;4989564;28;20189;-84
2021/06/16 10:50:05;;;;;;;2.53;1.88;;;;;;;;;;4989375;28;20182;-84
2021/06/16 10:53:09;;;;;;;4.90;2.03;;;;;;;;;;5013129;28;20182;-85
2021/06/16 10:56:13;;;;;;;2.80;1.83;;;;;;;;;;5038415;23;20231;-81
2021/06/16 10:59:43;;;;;;;4.10;1.77;;;;;;;;;;5014110;28;20182;-81
2021/06/16 11:02:47;;;;;;;5.72;2.60;;;;;;;;;;5015182;28;20206;-81
2021/06/16 11:05:52;;;;;;;4.30;2.15;;;;;;;;;;5014010;28;20213;-81
2021/06/16 11:08:56;;;;;;;2.10;1.63;;;;;;;;;;5025170;28;20178;-81
2021/06/16 11:12:08;;;;;;;11.98;2.33;;;;;;;;;;5025267;28;20178;-81
2021/06/16 11:15:25;;;;;;;18.25;3.03;;;;;;;;;;5013512;28;20217;-81
2021/06/16 11:18:29;;;;;;;7.40;2.45;;;;;;;;;;5014564;28;20517;-81
2021/06/16 11:21:33;;;;;;;4.00;2.60;;;;;;;;;;5014680;28;20198;-81
2021/06/16 11:24:59;;;;;;;2.85;2.15;;;;;;;;;;5003218;28;20182;-81
2021/06/16 11:28:07;;;;;;;3.78;1.85;;;;;;;;;;5003695;28;20181;-81
2021/06/16 11:31:13;;;;;;;3.97;1.90;;;;;;;;;;5014021;28;20198;-81
2021/06/16 11:34:52;;;;;;;33.28;3.90;;;;;;;;;;5014808;28;20185;-81
2021/06/16 11:38:00;;;;;;;2.72;1.60;;;;;;;;;;5002646;28;20189;-81
2021/06/16 11:41:16;;;;;;;3.22;1.58;;;;;;;;;;5002274;28;20625;-80
2021/06/16 11:44:20;;;;;;;2.42;1.38;;;;;;;;;;5013652;28;20171;-81
2021/06/16 11:47:26;;;;;;;3.25;1.52;;;;;;;;;;5024977;28;20173;-81
2021/06/16 11:50:34;;;;;;;2.72;1.70;;;;;;;;;;5024808;28;20181;-80
2021/06/16 11:53:39;;;;;;;2.20;2.00;;;;;;;;;;5013854;28;20178;-81
2021/06/16 11:56:43;;;;;;;2.33;1.73;;;;;;;;;;5014657;28;20226;-80
2021/06/16 11:59:52;;;;;;;2.45;1.63;;;;;;;;;;5024993;28;20656;-81
2021/06/16 12:02:56;;;;;;;2.70;1.80;;;;;;;;;;5013494;28;20206;-80
2021/06/16 12:06:06;;;;;;;1.80;1.70;;;;;;;;;;5024456;28;20221;-81
2021/06/16 12:09:10;;;;;;;2.42;1.92;;;;;;;;;;5029396;28;20197;-80
2021/06/16 12:12:14;;;;;;;2.03;1.50;;;;;;;;;;5033573;28;20185;-81
2021/06/16 12:15:29;;;;;;;5.57;2.22;;;;;;;;;;5048428;28;20220;-81
2021/06/16 12:18:33;;;;;;;2.25;1.80;;;;;;;;;;5037777;28;20186;-81
2021/06/16 12:21:38;;;;;;;2.70;1.88;;;;;;;;;;5036815;28;20504;-80
2021/06/16 12:24:45;;;;;;;3.38;1.90;;;;;;;;;;5037288;28;20193;-81
2021/06/16 12:27:49;;;;;;;2.10;1.50;;;;;;;;;;5036550;28;20538;-81
2021/06/16 12:30:56;;;;;;;1.70;1.58;;;;;;;;;;5036607;28;20201;-81
2021/06/16 12:37:13;;;;;;;2.53;1.65;;;;;;;;;;5037296;28;20185;-80
2021/06/16 12:40:29;;;;;;;3.65;1.50;;;;;;;;;;5047911;28;20173;-80
2021/06/16 12:43:34;;;;;;;5.70;1.58;;;;;;;;;;5047579;28;20229;-81
2021/06/16 12:47:02;;;;;;;3.53;1.77;;;;;;;;;;5024834;28;20216;-80
2021/06/16 12:50:06;;;;;;;3.20;1.48;;;;;;;;;;5024901;28;20651;-80
2021/06/16 12:53:15;;;;;;;2.55;1.40;;;;;;;;;;5047659;28;20177;-80
2021/06/16 12:56:19;;;;;;;1.77;1.20;;;;;;;;;;5035795;28;20588;-81
2021/06/16 12:59:46;;;;;;;4.18;1.30;;;;;;;;;;5037091;28;20619;-80
2021/06/16 13:02:51;;;;;;;2.22;1.38;;;;;;;;;;5036954;28;20213;-81
2021/06/16 13:05:57;;;;;;;1.90;1.50;;;;;;;;;;5047126;28;20216;-81
2021/06/16 13:09:02;;;;;;;1.20;1.10;;;;;;;;;;5047391;28;20181;-81
2021/06/16 13:12:07;;;;;;;1.35;1.10;;;;;;;;;;5024492;28;20190;-81
2021/06/16 13:15:11;;;;;;;2.17;1.60;;;;;;;;;;5036755;28;20213;-81
2021/06/16 13:18:19;;;;;;;2.38;1.40;;;;;;;;;;5036086;28;20221;-80
2021/06/16 13:21:24;;;;;;;5.97;1.38;;;;;;;;;;5024797;28;20648;-80
2021/06/16 13:24:28;;;;;;;4.00;1.50;;;;;;;;;;5045718;28;20209;-80
2021/06/16 13:27:47;;;;;;;2.03;1.30;;;;;;;;;;5036668;28;20181;-81
2021/06/16 13:30:54;;;;;;;4.75;1.67;;;;;;;;;;5036385;28;20198;-81
2021/06/16 13:34:17;;;;;;;4.90;1.50;;;;;;;;;;5025019;28;20177;-81
2021/06/16 13:37:21;;;;;;;3.97;1.48;;;;;;;;;;5036788;28;20526;-81
2021/06/16 13:40:25;;;;;;;3.63;1.55;;;;;;;;;;5047063;28;20644;-81
2021/06/16 13:43:30;;;;;;;3.22;1.33;;;;;;;;;;5035510;28;20675;-81
2021/06/16 13:46:35;;;;;;;5.88;1.58;;;;;;;;;;5035181;28;20220;-81
2021/06/16 13:49:39;;;;;;;4.65;1.30;;;;;;;;;;5036077;28;20201;-81
2021/06/16 13:52:43;;;;;;;2.10;1.48;;;;;;;;;;5036007;28;20197;-81
2021/06/16 13:55:48;;;;;;;1.65;1.27;;;;;;;;;;5046367;28;20228;-81
2021/06/16 13:58:52;;;;;;;2.10;1.33;;;;;;;;;;5046530;28;20656;-81
2021/06/16 14:01:56;;;;;;;2.15;1.52;;;;;;;;;;5023691;28;20201;-80
2021/06/16 14:05:05;;;;;;;3.83;1.58;;;;;;;;;;5023788;28;20224;-81
2021/06/16 14:08:11;;;;;;;4.70;1.50;;;;;;;;;;5035328;28;20181;-81
2021/06/16 14:11:15;;;;;;;1.80;1.27;;;;;;;;;;5036015;28;20177;-80
2021/06/16 14:14:19;;;;;;;3.67;1.27;;;;;;;;;;5034469;28;20188;-81
2021/06/16 14:17:23;;;;;;;1.63;1.45;;;;;;;;;;5034260;28;20197;-82
2021/06/16 14:20:28;;;;;;;2.17;1.33;;;;;;;;;;5023255;28;20557;-82
2021/06/16 14:23:32;;;;;;;5.75;1.70;;;;;;;;;;5034528;28;20217;-81
2021/06/16 14:26:37;;;;;;;2.25;1.63;;;;;;;;;;5034268;28;20217;-81
2021/06/16 14:29:41;;;;;;;1.88;1.30;;;;;;;;;;5032656;28;20800;-82
2021/06/16 14:32:46;;;;;;;2.83;1.65;;;;;;;;;;5033107;28;20177;-81
2021/06/16 14:35:51;;;;;;;2.80;1.40;;;;;;;;;;5032040;28;20212;-81
2021/06/16 14:38:55;;;;;;;2.35;1.50;;;;;;;;;;5043697;28;20177;-82
2021/06/16 14:42:00;;;;;;;1.67;1.52;;;;;;;;;;5032459;28;20522;-81
2021/06/16 14:45:05;;;;;;;2.30;1.55;;;;;;;;;;5020662;28;20224;-82
2021/06/16 14:48:10;;;;;;;2.22;1.70;;;;;;;;;;5020936;28;20189;-82
2021/06/16 14:51:14;;;;;;;1.92;1.40;;;;;;;;;;5032162;28;20589;-82
2021/06/16 14:54:18;;;;;;;2.80;1.60;;;;;;;;;;5032776;28;20644;-81
2021/06/16 14:57:23;;;;;;;3.08;1.55;;;;;;;;;;5031312;28;20189;-85
2021/06/16 15:00:27;;;;;;;2.30;1.48;;;;;;;;;;5022351;28;20193;-81
2021/06/16 15:03:32;;;;;;;3.28;1.70;;;;;;;;;;5001136;28;20209;-82
2021/06/16 15:06:36;;;;;;;3.58;1.80;;;;;;;;;;5023722;28;20704;-81
2021/06/16 15:09:40;;;;;;;2.25;1.75;;;;;;;;;;5026416;28;20186;-81
2021/06/16 15:12:17;;;;;;;2.20;1.70;;;;;;;;;;5119149;27;20715;-73
2021/06/16 15:15:21;;;;;;;2.03;1.75;;;;;;;;;;5090412;28;20198;-73
2021/06/16 15:18:26;;;;;;;3.60;1.80;;;;;;;;;;5049411;28;20634;-74
2021/06/16 15:21:30;;;;;;;2.55;2.00;;;;;;;;;;5051666;28;20184;-72
2021/06/16 15:24:34;;;;;;;3.67;2.15;;;;;;;;;;5049410;28;20177;-74
2021/06/16 15:27:40;;;;;;;3.05;1.98;;;;;;;;;;5049245;28;20216;-73
2021/06/16 15:30:44;;;;;;;3.47;1.85;;;;;;;;;;5049504;28;20594;-74
2021/06/16 15:33:49;;;;;;;4.97;2.08;;;;;;;;;;5053598;28;20195;-73
2021/06/16 15:36:53;;;;;;;3.53;1.90;;;;;;;;;;5052937;28;20695;-73
2021/06/16 15:39:59;;;;;;;3.83;1.85;;;;;;;;;;5050554;28;20180;-73
2021/06/16 15:43:05;;;;;;;2.53;2.10;;;;;;;;;;5069431;28;20172;-73
2021/06/16 15:46:09;;;;;;;9.00;2.38;;;;;;;;;;5070017;28;20211;-74
2021/06/16 15:49:13;;;;;;;12.32;2.70;;;;;;;;;;5050854;28;20569;-72
2021/06/16 15:52:19;;;;;;;6.43;2.22;;;;;;;;;;5060434;28;20542;-73
2021/06/16 15:55:25;;;;;;;4.93;2.20;;;;;;;;;;5050879;28;20197;-72
2021/06/16 15:58:30;;;;;;;5.15;2.42;;;;;;;;;;5049812;28;20524;-73
2021/06/16 16:01:35;;;;;;;2.70;2.00;;;;;;;;;;5053708;28;20200;-72
2021/06/16 16:04:39;;;;;;;5.18;2.40;;;;;;;;;;5053859;28;20528;-72
2021/06/16 16:07:45;;;;;;;2.13;1.88;;;;;;;;;;5046049;28;20211;-72
2021/06/16 16:10:49;;;;;;;4.45;2.08;;;;;;;;;;5065504;28;20227;-72
2021/06/16 16:13:56;;;;;;;6.53;1.95;;;;;;;;;;5045359;28;20737;-73
2021/06/16 16:17:01;;;;;;;5.90;2.10;;;;;;;;;;5045571;28;20216;-72
2021/06/16 16:20:07;;;;;;;2.35;1.83;;;;;;;;;;5058412;28;20187;-72
2021/06/16 16:23:12;;;;;;;4.20;1.83;;;;;;;;;;5065427;28;20746;-72
2021/06/16 16:26:16;;;;;;;2.97;1.98;;;;;;;;;;5051789;28;20212;-72
2021/06/16 16:29:22;;;;;;;6.32;2.10;;;;;;;;;;5049385;28;20199;-72
2021/06/16 16:32:26;;;;;;;2.25;1.80;;;;;;;;;;5051575;28;20202;-72
2021/06/16 16:35:30;;;;;;;1.83;1.70;;;;;;;;;;5051315;28;20191;-72
2021/06/16 16:38:34;;;;;;;4.10;1.92;;;;;;;;;;5049658;28;20193;-72
2021/06/16 16:41:39;;;;;;;2.47;1.95;;;;;;;;;;5049637;28;20181;-72
2021/06/16 16:44:43;;;;;;;7.55;2.38;;;;;;;;;;5036153;28;20191;-72
2021/06/16 16:47:47;;;;;;;4.72;1.70;;;;;;;;;;5047624;28;20222;-72
2021/06/16 16:50:51;;;;;;;4.22;1.90;;;;;;;;;;5050576;28;20533;-72
2021/06/16 16:53:55;;;;;;;8.30;2.38;;;;;;;;;;5012320;28;20183;-72
2021/06/16 16:57:00;;;;;;;3.17;2.03;;;;;;;;;;5039809;28;20728;-72
2021/06/16 17:00:06;;;;;;;2.70;2.10;;;;;;;;;;5048809;28;20754;-72
2021/06/16 17:03:10;;;;;;;2.40;1.88;;;;;;;;;;5050578;28;20197;-72
2021/06/16 17:06:15;;;;;;;9.23;2.70;;;;;;;;;;5033932;28;20224;-72
2021/06/16 17:09:19;;;;;;;4.68;2.33;;;;;;;;;;5038215;28;20204;-72
2021/06/16 17:12:23;;;;;;;4.00;2.10;;;;;;;;;;5044063;28;20217;-72
2021/06/16 17:15:27;;;;;;;6.13;2.40;;;;;;;;;;5040556;28;20214;-72
2021/06/16 17:18:31;;;;;;;3.85;2.40;;;;;;;;;;5050462;28;20797;-72
2021/06/16 17:21:36;;;;;;;4.28;2.67;;;;;;;;;;5035447;28;20198;-72
2021/06/16 17:24:40;;;;;;;4.53;2.35;;;;;;;;;;5038158;28;20197;-71
2021/06/16 17:27:45;;;;;;;9.48;2.45;;;;;;;;;;5031456;28;20218;-72
2021/06/16 17:30:49;;;;;;;4.05;2.30;;;;;;;;;;5038911;28;20187;-72
2021/06/16 17:33:54;;;;;;;4.95;2.20;;;;;;;;;;5048071;28;20193;-72
2021/06/16 17:37:01;;;;;;;6.50;2.67;;;;;;;;;;5030605;28;20224;-72
2021/06/16 17:40:11;;;;;;;3.47;2.05;;;;;;;;;;5044293;28;20706;-72
2021/06/16 17:43:16;;;;;;;3.20;2.43;;;;;;;;;;5050501;28;20180;-73
2021/06/16 17:46:20;;;;;;;12.23;2.47;;;;;;;;;;5010976;28;20223;-72
2021/06/16 17:49:25;;;;;;;2.72;2.22;;;;;;;;;;5036176;28;20185;-72
2021/06/16 17:52:29;;;;;;;2.90;2.37;;;;;;;;;;5046726;28;20202;-72
2021/06/16 17:55:33;;;;;;;7.13;2.47;;;;;;;;;;5046635;28;20204;-72
2021/06/16 17:58:39;;;;;;;5.47;2.50;;;;;;;;;;5023031;28;20636;-72
2021/06/16 18:01:43;;;;;;;2.40;1.83;;;;;;;;;;5039454;28;20194;-72
2021/06/16 18:04:47;;;;;;;4.77;2.30;;;;;;;;;;5033983;28;20185;-72
2021/06/16 18:07:53;;;;;;;4.30;2.07;;;;;;;;;;5041333;28;20232;-71
2021/06/16 18:10:57;;;;;;;2.27;1.90;;;;;;;;;;5040775;28;20552;-72
2021/06/16 18:14:02;;;;;;;5.30;2.53;;;;;;;;;;5029739;28;20544;-72
2021/06/16 18:17:06;;;;;;;3.97;2.17;;;;;;;;;;5037540;28;20222;-72
2021/06/16 18:20:12;;;;;;;3.27;2.20;;;;;;;;;;5030147;28;20177;-72
2021/06/16 18:23:17;;;;;;;3.80;2.23;;;;;;;;;;5045347;28;20183;-72
2021/06/16 18:26:21;;;;;;;3.20;2.60;;;;;;;;;;5048812;28;20721;-72
2021/06/16 18:29:25;;;;;;;4.30;2.17;;;;;;;;;;5049091;28;20206;-72
2021/06/16 18:32:30;;;;;;;5.07;2.30;;;;;;;;;;5037093;28;20223;-72
2021/06/16 18:35:35;;;;;;;3.73;2.27;;;;;;;;;;5049665;28;20193;-72